Zim Yokohama — A8MY4 — position and weather

sailwx.info

Track history (hours):
 
Tides and Currents Weather Stations Pressure Air Temp Water Temp Dewpoint Dewpoint Depression Visibility Wind Speed Wind Dir Waves Ship Positions

Zim Yokohama

Last reported at 2018-Nov-13 00:00 UTC. Time now 2018-Nov-14 05:32 UTC.
Position N 42°36' W 053°36'.

Length 260 m; draft 12.7 m.

Type: Ship (hazmat cat A). MMSI: 636013436.

Wind from 270 at 43 knots

Barometer 1017.0 mb
Air temperature 10.0 ° C
Visibility: greater than 5.4 NM
Dewpoint 5.6 ° C

Date/timePositionNaut miles runAvg speedWind from/ knotsBaromVisibWave heightAir tempDewpointWater temp
2018-Nov-13 00:00N 42°36' W 053°36'14812.3 270 / 431017.0 5.4 10.0 5.6
2018-Nov-12 12:00N 41°54' W 050°24'1636136.4 290 / 321014.0 5.4 15.011.318.0
2018-Nov-12 00:00N 41°06' W 014°00'1325110.4 240 / 171014.0 5.4 19.013.821.0
2018-Nov-11 12:00N 40°18' W 043°06'17914.9 180 / 221021.010.8 21.014.220.0
2018-Nov-11 00:00N 39°24' W 039°24'16613.8 310 / 231025.010.8 19.011.821.0
2018-Nov-10 12:00N 38°36' W 036°00'19213.6 300 / 271021.010.8 20.013.023.0
2018-Nov-09 21:47N 37°46' W 032°03'414.5
2018-Nov-09 21:32N 37°45' W 031°59'714.5
2018-Nov-09 21:02N 37°43' W 031°50'714.5
2018-Nov-09 20:32N 37°41' W 031°42'12513.5
2018-Nov-09 11:15N 37°06' W 029°10'8613.6
2018-Nov-09 04:54N 36°41' W 027°27'6914.1
2018-Nov-09 00:00N 36°22' W 026°04'713.8
2018-Nov-08 23:30N 36°20' W 025°56'714.1
2018-Nov-08 23:02N 36°18' W 025°48'714.0
2018-Nov-08 22:32N 36°16' W 025°40'714.1
2018-Nov-08 22:03N 36°14' W 025°32'714.0
2018-Nov-08 21:33N 36°12' W 025°23'713.9
2018-Nov-08 21:02N 36°10' W 025°15'714.0
2018-Nov-08 20:32N 36°08' W 025°07'714.0
2018-Nov-08 20:02N 36°06' W 024°58'714.1
2018-Nov-08 19:32N 36°04' W 024°50'714.0
2018-Nov-08 19:02N 36°02' W 024°42'714.1
2018-Nov-08 18:32N 35°60' W 024°33'714.3
2018-Nov-08 18:02N 35°59' W 024°25'714.5
2018-Nov-08 17:32N 35°59' W 024°16'714.3
2018-Nov-08 17:02N 35°59' W 024°07'714.3
2018-Nov-08 16:32N 35°60' W 023°58'  
2018-Nov-05 02:01N 37°20' W 000°55'115.7
2018-Nov-05 01:59N 37°20' W 000°54'816.1
2018-Nov-05 01:30N 37°25' W 000°47'1116.7
2018-Nov-05 00:49N 37°32' W 000°36'616.3
2018-Nov-05 00:29N 37°36' W 000°31'716.2
2018-Nov-05 00:03N 37°42' W 000°27'115.9
2018-Nov-05 00:00N 37°43' W 000°26'816.4
2018-Nov-04 23:30N 37°50' W 000°21'816.7
2018-Nov-04 23:01N 37°57' W 000°15'016.6
2018-Nov-04 23:00N 37°57' W 000°15'816.6
2018-Nov-04 22:30N 38°04' W 000°10'1816.6
2018-Nov-04 21:25N 38°19' E 000°03'616.1
2018-Nov-04 21:03N 38°24' E 000°07'115.9
2018-Nov-04 21:00N 38°25' E 000°08'816.0
2018-Nov-04 20:30N 38°31' E 000°13'716.1
2018-Nov-04 20:02N 38°38' E 000°18'5316.0
2018-Nov-04 16:45N 39°24' W 000°14'414.3
2018-Nov-04 16:29N 39°26' W 000°18'1 2.1
2018-Nov-04 16:02N 39°27' W 000°19'0 0.0
2018-Nov-04 15:59N 39°27' W 000°19'0 0.0
2018-Nov-04 15:29N 39°27' W 000°19'0 0.0
2018-Nov-04 14:56N 39°27' W 000°19'0 0.0
2018-Nov-04 14:29N 39°27' W 000°19'0 0.0
2018-Nov-04 14:02N 39°27' W 000°19'0 0.2
2018-Nov-04 13:59N 39°27' W 000°19'0 0.0
2018-Nov-04 13:29N 39°27' W 000°19'0 0.0
2018-Nov-04 13:02N 39°27' W 000°19'0 0.0
2018-Nov-04 12:56N 39°27' W 000°19'0 0.0
2018-Nov-04 12:26N 39°27' W 000°19'0 0.0
2018-Nov-04 12:02N 39°27' W 000°19'0 0.0
2018-Nov-04 11:59N 39°27' W 000°19'0 0.0
2018-Nov-04 11:29N 39°27' W 000°19'0 0.0
2018-Nov-04 11:02N 39°27' W 000°19'0 0.0
2018-Nov-04 10:59N 39°27' W 000°19'0 0.0
2018-Nov-04 10:29N 39°27' W 000°19'0 0.0
2018-Nov-04 10:02N 39°27' W 000°19'0 0.2
2018-Nov-04 09:59N 39°27' W 000°19'0 0.0
2018-Nov-04 09:29N 39°27' W 000°19'0 0.0
2018-Nov-04 09:02N 39°27' W 000°19'0 0.0
2018-Nov-04 08:59N 39°27' W 000°19'0 0.0
2018-Nov-04 08:29N 39°27' W 000°19'0 0.0
2018-Nov-04 08:02N 39°27' W 000°19'0 0.0
2018-Nov-04 07:59N 39°27' W 000°19'0 0.0
2018-Nov-04 07:26N 39°27' W 000°19'0 0.0
2018-Nov-04 07:02N 39°27' W 000°19'0 0.0
2018-Nov-04 06:59N 39°27' W 000°19'0 0.0
2018-Nov-04 06:29N 39°27' W 000°19'0 0.0
2018-Nov-04 06:02N 39°27' W 000°19'0 0.0
2018-Nov-04 05:59N 39°27' W 000°19'0 0.0
2018-Nov-04 05:29N 39°27' W 000°19'0 0.0
2018-Nov-04 05:02N 39°27' W 000°19'0 0.0
2018-Nov-04 04:59N 39°27' W 000°19'0 0.0
2018-Nov-04 04:29N 39°27' W 000°19'0 0.0
2018-Nov-04 04:02N 39°27' W 000°19'0 0.0
2018-Nov-04 03:56N 39°27' W 000°19'0 0.0
2018-Nov-04 03:29N 39°27' W 000°19'0 0.0
2018-Nov-04 03:02N 39°27' W 000°19'0 0.1
2018-Nov-04 02:59N 39°27' W 000°19'0 0.0
2018-Nov-04 02:29N 39°27' W 000°19'0 0.0
2018-Nov-04 02:02N 39°27' W 000°19'0 0.0
2018-Nov-04 01:59N 39°27' W 000°19'0 0.0
2018-Nov-04 01:29N 39°27' W 000°19'0 0.0
2018-Nov-04 01:02N 39°27' W 000°19'0 0.0
2018-Nov-04 00:59N 39°27' W 000°19'0 0.0
2018-Nov-04 00:29N 39°27' W 000°19'0 0.0
2018-Nov-03 23:59N 39°27' W 000°19'0 0.0
2018-Nov-03 23:29N 39°27' W 000°19'0 0.0
2018-Nov-03 23:02N 39°27' W 000°19'0 0.0
2018-Nov-03 22:59N 39°27' W 000°19'0 0.0
2018-Nov-03 22:29N 39°27' W 000°19'0 0.0
2018-Nov-03 20:23N 39°27' W 000°19'0 0.0
2018-Nov-03 20:02N 39°27' W 000°19'0 0.0
2018-Nov-03 19:59N 39°27' W 000°19'0 0.0
2018-Nov-03 19:29N 39°27' W 000°19'0 0.0
2018-Nov-03 19:02N 39°27' W 000°19'0 0.0
2018-Nov-03 18:56N 39°27' W 000°19'0 0.0
2018-Nov-03 18:29N 39°27' W 000°19'0 0.0
2018-Nov-03 18:02N 39°27' W 000°19'0 0.0
2018-Nov-03 17:53N 39°27' W 000°19'0 0.0
2018-Nov-03 17:30N 39°27' W 000°19'2 5.2
2018-Nov-03 17:03N 39°25' W 000°17'0 8.3
2018-Nov-03 17:01N 39°25' W 000°16'5 9.4
2018-Nov-03 16:30N 39°27' W 000°11'13319.8
2018-Nov-03 09:47N 41°00' E 001°53'620.0
2018-Nov-03 09:30N 41°05' E 001°58'920.4
2018-Nov-03 09:03N 41°12' E 002°05'121.0
2018-Nov-03 09:00N 41°13' E 002°06'815.2
2018-Nov-03 08:30N 41°20' E 002°10'1 2.8
2018-Nov-03 08:01N 41°21' E 002°10'0 0.1
2018-Nov-03 07:58N 41°21' E 002°10'0 0.0
2018-Nov-03 07:28N 41°21' E 002°10'0 0.0
2018-Nov-03 07:01N 41°21' E 002°10'0 0.0
2018-Nov-03 06:58N 41°21' E 002°10'0 0.0
2018-Nov-03 06:28N 41°21' E 002°10'0 0.0
2018-Nov-03 06:01N 41°21' E 002°10'0 0.0
2018-Nov-03 05:55N 41°21' E 002°10'0 0.0
2018-Nov-03 05:28N 41°21' E 002°10'0 0.0
2018-Nov-03 05:01N 41°21' E 002°10'0 0.0
2018-Nov-03 04:58N 41°21' E 002°10'0 0.0
2018-Nov-03 04:28N 41°21' E 002°10'0 0.0
2018-Nov-03 04:01N 41°21' E 002°10'0 0.0
2018-Nov-03 03:58N 41°21' E 002°10'0 0.0
2018-Nov-03 03:28N 41°21' E 002°10'0 0.0
2018-Nov-03 03:01N 41°21' E 002°10'0 0.1
2018-Nov-03 02:58N 41°21' E 002°10'0 0.0
2018-Nov-03 02:28N 41°21' E 002°10'0 0.0
2018-Nov-03 02:01N 41°21' E 002°10'0 0.0
2018-Nov-03 01:58N 41°21' E 002°10'0 0.0
2018-Nov-03 01:28N 41°21' E 002°10'0 0.0
2018-Nov-03 01:01N 41°21' E 002°10'0 0.1
2018-Nov-03 00:58N 41°21' E 002°10'0 0.0
2018-Nov-03 00:28N 41°21' E 002°10'0 0.0
2018-Nov-03 00:01N 41°21' E 002°10'  
Track history (hours):
 
Tides and Currents Weather Stations Pressure Air Temp Water Temp Dewpoint Dewpoint Depression Visibility Wind Speed Wind Dir Waves Ship Positions

Zim Yokohama

Last reported at 2018-Nov-13 00:00 UTC. Time now 2018-Nov-14 05:32 UTC.
Position N 42°36' W 053°36'.

Length 260 m; draft 12.7 m.

Type: Ship (hazmat cat A). MMSI: 636013436.

Wind from 270 at 43 knots

Barometer 1017.0 mb
Air temperature 10.0 ° C
Visibility: greater than 5.4 NM
Dewpoint 5.6 ° C

Date/timePositionNaut miles runAvg speedWind from/ knotsBaromVisibWave heightAir tempDewpointWater temp
2018-Nov-13 00:00N 42°36' W 053°36'14812.3 270 / 431017.0 5.4 10.0 5.6
2018-Nov-12 12:00N 41°54' W 050°24'1636136.4 290 / 321014.0 5.4 15.011.318.0
2018-Nov-12 00:00N 41°06' W 014°00'1325110.4 240 / 171014.0 5.4 19.013.821.0
2018-Nov-11 12:00N 40°18' W 043°06'17914.9 180 / 221021.010.8 21.014.220.0
2018-Nov-11 00:00N 39°24' W 039°24'16613.8 310 / 231025.010.8 19.011.821.0
2018-Nov-10 12:00N 38°36' W 036°00'19213.6 300 / 271021.010.8 20.013.023.0
2018-Nov-09 21:47N 37°46' W 032°03'414.5
2018-Nov-09 21:32N 37°45' W 031°59'714.5
2018-Nov-09 21:02N 37°43' W 031°50'714.5
2018-Nov-09 20:32N 37°41' W 031°42'12513.5
2018-Nov-09 11:15N 37°06' W 029°10'8613.6
2018-Nov-09 04:54N 36°41' W 027°27'6914.1
2018-Nov-09 00:00N 36°22' W 026°04'713.8
2018-Nov-08 23:30N 36°20' W 025°56'714.1
2018-Nov-08 23:02N 36°18' W 025°48'714.0
2018-Nov-08 22:32N 36°16' W 025°40'714.1
2018-Nov-08 22:03N 36°14' W 025°32'714.0
2018-Nov-08 21:33N 36°12' W 025°23'713.9
2018-Nov-08 21:02N 36°10' W 025°15'714.0
2018-Nov-08 20:32N 36°08' W 025°07'714.0
2018-Nov-08 20:02N 36°06' W 024°58'714.1
2018-Nov-08 19:32N 36°04' W 024°50'714.0
2018-Nov-08 19:02N 36°02' W 024°42'714.1
2018-Nov-08 18:32N 35°60' W 024°33'714.3
2018-Nov-08 18:02N 35°59' W 024°25'714.5
2018-Nov-08 17:32N 35°59' W 024°16'714.3
2018-Nov-08 17:02N 35°59' W 024°07'714.3
2018-Nov-08 16:32N 35°60' W 023°58'  
2018-Nov-05 02:01N 37°20' W 000°55'115.7
2018-Nov-05 01:59N 37°20' W 000°54'816.1
2018-Nov-05 01:30N 37°25' W 000°47'1116.7
2018-Nov-05 00:49N 37°32' W 000°36'616.3
2018-Nov-05 00:29N 37°36' W 000°31'716.2
2018-Nov-05 00:03N 37°42' W 000°27'115.9
2018-Nov-05 00:00N 37°43' W 000°26'816.4
2018-Nov-04 23:30N 37°50' W 000°21'816.7
2018-Nov-04 23:01N 37°57' W 000°15'016.6
2018-Nov-04 23:00N 37°57' W 000°15'816.6
2018-Nov-04 22:30N 38°04' W 000°10'1816.6
2018-Nov-04 21:25N 38°19' E 000°03'616.1
2018-Nov-04 21:03N 38°24' E 000°07'115.9
2018-Nov-04 21:00N 38°25' E 000°08'816.0
2018-Nov-04 20:30N 38°31' E 000°13'716.1
2018-Nov-04 20:02N 38°38' E 000°18'5316.0
2018-Nov-04 16:45N 39°24' W 000°14'414.3
2018-Nov-04 16:29N 39°26' W 000°18'1 2.1
2018-Nov-04 16:02N 39°27' W 000°19'0 0.0
2018-Nov-04 15:59N 39°27' W 000°19'0 0.0
2018-Nov-04 15:29N 39°27' W 000°19'0 0.0
2018-Nov-04 14:56N 39°27' W 000°19'0 0.0
2018-Nov-04 14:29N 39°27' W 000°19'0 0.0
2018-Nov-04 14:02N 39°27' W 000°19'0 0.2
2018-Nov-04 13:59N 39°27' W 000°19'0 0.0
2018-Nov-04 13:29N 39°27' W 000°19'0 0.0
2018-Nov-04 13:02N 39°27' W 000°19'0 0.0
2018-Nov-04 12:56N 39°27' W 000°19'0 0.0
2018-Nov-04 12:26N 39°27' W 000°19'0 0.0
2018-Nov-04 12:02N 39°27' W 000°19'0 0.0
2018-Nov-04 11:59N 39°27' W 000°19'0 0.0
2018-Nov-04 11:29N 39°27' W 000°19'0 0.0
2018-Nov-04 11:02N 39°27' W 000°19'0 0.0
2018-Nov-04 10:59N 39°27' W 000°19'0 0.0
2018-Nov-04 10:29N 39°27' W 000°19'0 0.0
2018-Nov-04 10:02N 39°27' W 000°19'0 0.2
2018-Nov-04 09:59N 39°27' W 000°19'0 0.0
2018-Nov-04 09:29N 39°27' W 000°19'0 0.0
2018-Nov-04 09:02N 39°27' W 000°19'0 0.0
2018-Nov-04 08:59N 39°27' W 000°19'0 0.0
2018-Nov-04 08:29N 39°27' W 000°19'0 0.0
2018-Nov-04 08:02N 39°27' W 000°19'0 0.0
2018-Nov-04 07:59N 39°27' W 000°19'0 0.0
2018-Nov-04 07:26N 39°27' W 000°19'0 0.0
2018-Nov-04 07:02N 39°27' W 000°19'0 0.0
2018-Nov-04 06:59N 39°27' W 000°19'0 0.0
2018-Nov-04 06:29N 39°27' W 000°19'0 0.0
2018-Nov-04 06:02N 39°27' W 000°19'0 0.0
2018-Nov-04 05:59N 39°27' W 000°19'0 0.0
2018-Nov-04 05:29N 39°27' W 000°19'0 0.0
2018-Nov-04 05:02N 39°27' W 000°19'0 0.0
2018-Nov-04 04:59N 39°27' W 000°19'0 0.0
2018-Nov-04 04:29N 39°27' W 000°19'0 0.0
2018-Nov-04 04:02N 39°27' W 000°19'0 0.0
2018-Nov-04 03:56N 39°27' W 000°19'0 0.0
2018-Nov-04 03:29N 39°27' W 000°19'0 0.0
2018-Nov-04 03:02N 39°27' W 000°19'0 0.1
2018-Nov-04 02:59N 39°27' W 000°19'0 0.0
2018-Nov-04 02:29N 39°27' W 000°19'0 0.0
2018-Nov-04 02:02N 39°27' W 000°19'0 0.0
2018-Nov-04 01:59N 39°27' W 000°19'0 0.0
2018-Nov-04 01:29N 39°27' W 000°19'0 0.0
2018-Nov-04 01:02N 39°27' W 000°19'0 0.0
2018-Nov-04 00:59N 39°27' W 000°19'0 0.0
2018-Nov-04 00:29N 39°27' W 000°19'0 0.0
2018-Nov-03 23:59N 39°27' W 000°19'0 0.0
2018-Nov-03 23:29N 39°27' W 000°19'0 0.0
2018-Nov-03 23:02N 39°27' W 000°19'0 0.0
2018-Nov-03 22:59N 39°27' W 000°19'0 0.0
2018-Nov-03 22:29N 39°27' W 000°19'0 0.0
2018-Nov-03 20:23N 39°27' W 000°19'0 0.0
2018-Nov-03 20:02N 39°27' W 000°19'0 0.0
2018-Nov-03 19:59N 39°27' W 000°19'0 0.0
2018-Nov-03 19:29N 39°27' W 000°19'0 0.0
2018-Nov-03 19:02N 39°27' W 000°19'0 0.0
2018-Nov-03 18:56N 39°27' W 000°19'0 0.0
2018-Nov-03 18:29N 39°27' W 000°19'0 0.0
2018-Nov-03 18:02N 39°27' W 000°19'0 0.0
2018-Nov-03 17:53N 39°27' W 000°19'0 0.0
2018-Nov-03 17:30N 39°27' W 000°19'2 5.2
2018-Nov-03 17:03N 39°25' W 000°17'0 8.3
2018-Nov-03 17:01N 39°25' W 000°16'5 9.4
2018-Nov-03 16:30N 39°27' W 000°11'13319.8
2018-Nov-03 09:47N 41°00' E 001°53'620.0
2018-Nov-03 09:30N 41°05' E 001°58'920.4
2018-Nov-03 09:03N 41°12' E 002°05'121.0
2018-Nov-03 09:00N 41°13' E 002°06'815.2
2018-Nov-03 08:30N 41°20' E 002°10'1 2.8
2018-Nov-03 08:01N 41°21' E 002°10'0 0.1
2018-Nov-03 07:58N 41°21' E 002°10'0 0.0
2018-Nov-03 07:28N 41°21' E 002°10'0 0.0
2018-Nov-03 07:01N 41°21' E 002°10'0 0.0
2018-Nov-03 06:58N 41°21' E 002°10'0 0.0
2018-Nov-03 06:28N 41°21' E 002°10'0 0.0
2018-Nov-03 06:01N 41°21' E 002°10'0 0.0
2018-Nov-03 05:55N 41°21' E 002°10'0 0.0
2018-Nov-03 05:28N 41°21' E 002°10'0 0.0
2018-Nov-03 05:01N 41°21' E 002°10'0 0.0
2018-Nov-03 04:58N 41°21' E 002°10'0 0.0
2018-Nov-03 04:28N 41°21' E 002°10'0 0.0
2018-Nov-03 04:01N 41°21' E 002°10'0 0.0
2018-Nov-03 03:58N 41°21' E 002°10'0 0.0
2018-Nov-03 03:28N 41°21' E 002°10'0 0.0
2018-Nov-03 03:01N 41°21' E 002°10'0 0.1
2018-Nov-03 02:58N 41°21' E 002°10'0 0.0
2018-Nov-03 02:28N 41°21' E 002°10'0 0.0
2018-Nov-03 02:01N 41°21' E 002°10'0 0.0
2018-Nov-03 01:58N 41°21' E 002°10'0 0.0
2018-Nov-03 01:28N 41°21' E 002°10'0 0.0
2018-Nov-03 01:01N 41°21' E 002°10'0 0.1
2018-Nov-03 00:58N 41°21' E 002°10'0 0.0
2018-Nov-03 00:28N 41°21' E 002°10'0 0.0
2018-Nov-03 00:01N 41°21' E 002°10'  

Dump ship's entire track history